createdAt,value
2023-04-16T00:00:43.892Z,427.00
2023-04-16T00:01:43.912Z,426.00
2023-04-16T00:02:43.944Z,424.00
2023-04-16T00:03:44.116Z,421.00
2023-04-16T00:04:43.948Z,419.00
2023-04-16T00:05:43.853Z,417.00
2023-04-16T00:06:43.834Z,417.00
2023-04-16T00:07:43.838Z,418.00
2023-04-16T00:08:43.881Z,415.00
2023-04-16T00:09:43.835Z,416.00
2023-04-16T00:10:43.810Z,417.00
2023-04-16T00:11:43.803Z,419.00
2023-04-16T00:12:43.804Z,419.00
2023-04-16T00:13:43.803Z,419.00
2023-04-16T00:14:43.799Z,420.00
2023-04-16T00:15:43.780Z,421.00
2023-04-16T00:16:43.792Z,421.00
2023-04-16T00:17:43.803Z,422.00
2023-04-16T00:18:43.767Z,422.00
2023-04-16T00:19:43.747Z,424.00
2023-04-16T00:20:43.749Z,425.00
2023-04-16T00:21:43.755Z,426.00
2023-04-16T00:22:43.734Z,427.00
2023-04-16T00:23:43.753Z,428.00
2023-04-16T00:24:43.736Z,430.00
2023-04-16T00:25:43.714Z,430.00
2023-04-16T00:26:43.718Z,429.00
2023-04-16T00:27:43.715Z,428.00
2023-04-16T00:28:43.713Z,426.00
2023-04-16T00:29:43.707Z,426.00
2023-04-16T00:30:43.715Z,425.00
2023-04-16T00:31:43.689Z,422.00
2023-04-16T00:32:43.723Z,421.00
2023-04-16T00:33:43.663Z,423.00
2023-04-16T00:34:43.663Z,423.00
2023-04-16T00:35:43.655Z,425.00
2023-04-16T00:36:43.665Z,426.00
2023-04-16T00:37:43.628Z,426.00
2023-04-16T00:38:43.641Z,424.00
2023-04-16T00:39:43.614Z,425.00
2023-04-16T00:40:43.613Z,424.00
2023-04-16T00:41:43.614Z,424.00
2023-04-16T00:42:43.609Z,423.00
2023-04-16T00:43:43.621Z,421.00
2023-04-16T00:44:43.595Z,422.00
2023-04-16T00:45:43.592Z,420.00
2023-04-16T00:46:43.668Z,419.00
2023-04-16T00:47:43.649Z,419.00
2023-04-16T00:48:43.597Z,421.00
2023-04-16T00:49:43.600Z,423.00
2023-04-16T00:50:43.598Z,423.00
2023-04-16T00:51:43.599Z,424.00
2023-04-16T00:52:43.580Z,422.00
2023-04-16T00:53:43.586Z,422.00
2023-04-16T00:54:43.570Z,424.00
2023-04-16T00:55:43.561Z,425.00
2023-04-16T00:56:43.569Z,425.00
2023-04-16T00:57:43.566Z,424.00
2023-04-16T00:58:43.553Z,422.00
2023-04-16T00:59:43.537Z,420.00
2023-04-16T01:00:43.547Z,420.00
2023-04-16T01:01:43.618Z,420.00
2023-04-16T01:02:43.616Z,418.00
2023-04-16T01:03:43.786Z,419.00
2023-04-16T01:04:43.554Z,422.00
2023-04-16T01:05:43.545Z,422.00
2023-04-16T01:06:43.542Z,423.00
2023-04-16T01:07:43.554Z,428.00
2023-04-16T01:08:43.550Z,423.00
2023-04-16T01:09:43.538Z,423.00
2023-04-16T01:10:43.544Z,423.00
2023-04-16T01:11:43.545Z,426.00
2023-04-16T01:12:43.559Z,428.00
2023-04-16T01:13:43.593Z,429.00
2023-04-16T01:14:43.553Z,426.00
2023-04-16T01:15:43.616Z,424.00
2023-04-16T01:16:43.566Z,426.00
2023-04-16T01:17:43.596Z,427.00
2023-04-16T01:18:43.565Z,426.00
2023-04-16T01:19:43.547Z,426.00
2023-04-16T01:20:43.556Z,427.00
2023-04-16T01:21:43.554Z,426.00
2023-04-16T01:22:43.568Z,423.00
2023-04-16T01:23:43.562Z,422.00
2023-04-16T01:24:43.555Z,423.00
2023-04-16T01:25:43.565Z,422.00
2023-04-16T01:26:43.555Z,421.00
2023-04-16T01:27:43.630Z,421.00
2023-04-16T01:28:43.566Z,422.00
2023-04-16T01:29:43.563Z,422.00
2023-04-16T01:30:43.557Z,423.00
2023-04-16T01:31:43.570Z,422.00
2023-04-16T01:32:43.597Z,423.00
2023-04-16T01:33:43.557Z,424.00
2023-04-16T01:34:43.545Z,425.00
2023-04-16T01:35:43.531Z,425.00
2023-04-16T01:36:43.532Z,426.00
2023-04-16T01:37:43.543Z,427.00
2023-04-16T01:38:43.528Z,426.00
2023-04-16T01:39:43.538Z,427.00
2023-04-16T01:40:43.539Z,425.00
2023-04-16T01:41:43.540Z,427.00
2023-04-16T01:42:43.537Z,427.00
2023-04-16T01:43:43.539Z,428.00
2023-04-16T01:44:43.532Z,428.00
2023-04-16T01:45:43.520Z,428.00
2023-04-16T01:46:43.554Z,426.00
2023-04-16T01:47:43.565Z,427.00
2023-04-16T01:48:43.536Z,427.00
2023-04-16T01:49:43.532Z,424.00
2023-04-16T01:50:43.540Z,424.00
2023-04-16T01:51:43.523Z,426.00
2023-04-16T01:52:43.545Z,429.00
2023-04-16T01:53:43.542Z,427.00
2023-04-16T01:54:43.540Z,427.00
2023-04-16T01:55:43.541Z,426.00
2023-04-16T01:56:43.530Z,427.00
2023-04-16T01:57:43.547Z,427.00
2023-04-16T01:58:43.562Z,428.00
2023-04-16T01:59:43.547Z,427.00
2023-04-16T02:00:43.575Z,429.00
2023-04-16T02:01:43.603Z,429.00
2023-04-16T02:02:43.696Z,427.00
2023-04-16T02:03:43.706Z,424.00
2023-04-16T02:04:43.577Z,423.00
2023-04-16T02:05:43.568Z,423.00
2023-04-16T02:06:43.560Z,422.00
2023-04-16T02:07:43.623Z,424.00
2023-04-16T02:08:43.575Z,426.00
2023-04-16T02:09:43.559Z,427.00
2023-04-16T02:10:43.591Z,428.00
2023-04-16T02:11:43.587Z,428.00
2023-04-16T02:12:43.582Z,428.00
2023-04-16T02:13:43.574Z,431.00
2023-04-16T02:14:43.571Z,433.00
2023-04-16T02:15:43.565Z,434.00
2023-04-16T02:16:43.623Z,434.00
2023-04-16T02:17:43.619Z,431.00
2023-04-16T02:18:43.606Z,432.00
2023-04-16T02:19:43.595Z,434.00
2023-04-16T02:20:43.584Z,433.00
2023-04-16T02:21:43.599Z,433.00
2023-04-16T02:22:43.628Z,434.00
2023-04-16T02:23:43.594Z,434.00
2023-04-16T02:24:43.592Z,432.00
2023-04-16T02:25:43.596Z,432.00
2023-04-16T02:26:43.618Z,433.00
2023-04-16T02:27:43.604Z,432.00
2023-04-16T02:28:43.626Z,430.00
2023-04-16T02:29:43.632Z,428.00
2023-04-16T02:30:43.629Z,426.00
2023-04-16T02:31:43.679Z,425.00
2023-04-16T02:32:43.695Z,428.00
2023-04-16T02:33:43.636Z,427.00
2023-04-16T02:34:43.649Z,426.00
2023-04-16T02:35:43.643Z,428.00
2023-04-16T02:36:43.646Z,427.00
2023-04-16T02:37:43.673Z,428.00
2023-04-16T02:38:43.664Z,428.00
2023-04-16T02:39:43.671Z,424.00
2023-04-16T02:40:43.702Z,424.00
2023-04-16T02:41:43.684Z,423.00
2023-04-16T02:42:43.696Z,424.00
2023-04-16T02:43:43.720Z,425.00
2023-04-16T02:44:43.727Z,426.00
2023-04-16T02:45:43.783Z,427.00
2023-04-16T02:46:43.730Z,424.00
2023-04-16T02:47:43.779Z,423.00
2023-04-16T02:48:43.740Z,424.00
2023-04-16T02:49:43.751Z,426.00
2023-04-16T02:50:43.738Z,425.00
2023-04-16T02:51:43.772Z,424.00
2023-04-16T02:52:43.746Z,425.00
2023-04-16T02:53:43.787Z,425.00
2023-04-16T02:54:43.777Z,425.00
2023-04-16T02:55:43.763Z,425.00
2023-04-16T02:56:43.785Z,426.00
2023-04-16T02:57:43.800Z,430.00
2023-04-16T02:58:43.794Z,434.00
2023-04-16T02:59:43.801Z,434.00
2023-04-16T03:00:43.797Z,431.00
2023-04-16T03:01:43.878Z,429.00
2023-04-16T03:02:43.871Z,425.00
2023-04-16T03:03:43.820Z,425.00
2023-04-16T03:04:43.960Z,423.00
2023-04-16T03:05:43.822Z,427.00
2023-04-16T03:06:43.820Z,428.00
2023-04-16T03:07:43.823Z,430.00
2023-04-16T03:08:43.833Z,430.00
2023-04-16T03:09:43.830Z,431.00
2023-04-16T03:10:43.858Z,429.00
2023-04-16T03:11:43.845Z,432.00
2023-04-16T03:12:43.857Z,434.00
2023-04-16T03:13:43.888Z,431.00
2023-04-16T03:14:43.878Z,434.00
2023-04-16T03:15:43.909Z,433.00
2023-04-16T03:16:43.906Z,433.00
2023-04-16T03:17:44.002Z,435.00
2023-04-16T03:18:43.911Z,435.00
2023-04-16T03:19:43.919Z,434.00
2023-04-16T03:20:43.952Z,433.00
2023-04-16T03:21:43.947Z,433.00
2023-04-16T03:22:43.960Z,431.00
2023-04-16T03:23:43.982Z,430.00
2023-04-16T03:24:43.967Z,428.00
2023-04-16T03:25:43.966Z,430.00
2023-04-16T03:26:43.978Z,430.00
2023-04-16T03:27:43.998Z,431.00
2023-04-16T03:28:43.989Z,432.00
2023-04-16T03:29:44.007Z,433.00
2023-04-16T03:30:44.004Z,431.00
2023-04-16T03:31:44.021Z,429.00
2023-04-16T03:32:44.101Z,428.00
2023-04-16T03:33:44.088Z,427.00
2023-04-16T03:34:44.061Z,428.00
2023-04-16T03:35:44.046Z,428.00
2023-04-16T03:36:44.065Z,428.00
2023-04-16T03:37:44.066Z,426.00
2023-04-16T03:38:44.061Z,424.00
2023-04-16T03:39:44.078Z,424.00
2023-04-16T03:40:44.086Z,424.00
2023-04-16T03:41:44.099Z,425.00
2023-04-16T03:42:44.106Z,426.00
2023-04-16T03:43:44.149Z,427.00
2023-04-16T03:44:44.120Z,428.00
2023-04-16T03:45:44.129Z,429.00
2023-04-16T03:46:44.167Z,430.00
2023-04-16T03:47:44.158Z,430.00
2023-04-16T03:48:44.146Z,429.00
2023-04-16T03:49:44.140Z,429.00
2023-04-16T03:50:44.150Z,427.00
2023-04-16T03:51:44.137Z,428.00
2023-04-16T03:52:44.160Z,427.00
2023-04-16T03:53:44.202Z,425.00
2023-04-16T03:54:44.169Z,426.00
2023-04-16T03:55:44.173Z,428.00
2023-04-16T03:56:44.212Z,429.00
2023-04-16T03:57:44.183Z,427.00
2023-04-16T03:58:44.208Z,426.00
2023-04-16T03:59:44.181Z,427.00
2023-04-16T04:00:44.214Z,429.00
2023-04-16T04:01:44.251Z,428.00
2023-04-16T04:02:44.384Z,431.00
2023-04-16T04:03:44.418Z,434.00
2023-04-16T04:04:44.302Z,435.00
2023-04-16T04:05:44.262Z,438.00
2023-04-16T04:06:44.250Z,437.00
2023-04-16T04:07:44.253Z,437.00
2023-04-16T04:08:44.271Z,432.00
2023-04-16T04:09:44.255Z,432.00
2023-04-16T04:10:44.278Z,432.00
2023-04-16T04:11:44.289Z,434.00
2023-04-16T04:12:44.311Z,437.00
2023-04-16T04:13:44.316Z,436.00
2023-04-16T04:14:44.316Z,436.00
2023-04-16T04:15:44.329Z,435.00
2023-04-16T04:16:44.367Z,434.00
2023-04-16T04:17:44.363Z,437.00
2023-04-16T04:18:44.662Z,435.00
2023-04-16T04:19:54.291Z,436.00
2023-04-16T04:20:45.352Z,437.00
2023-04-16T04:21:44.343Z,436.00
2023-04-16T04:22:44.372Z,436.00
2023-04-16T04:23:44.337Z,436.00
2023-04-16T04:24:44.339Z,438.00
2023-04-16T04:25:44.326Z,438.00
2023-04-16T04:26:44.316Z,436.00
2023-04-16T04:27:44.305Z,437.00
2023-04-16T04:28:44.323Z,435.00
2023-04-16T04:29:44.313Z,437.00
2023-04-16T04:30:44.300Z,437.00
2023-04-16T04:31:44.347Z,439.00
2023-04-16T04:32:44.297Z,440.00
2023-04-16T04:33:44.288Z,437.00
2023-04-16T04:34:44.267Z,437.00
2023-04-16T04:35:44.258Z,438.00
2023-04-16T04:36:44.248Z,440.00
2023-04-16T04:37:44.249Z,441.00
2023-04-16T04:38:44.255Z,444.00
2023-04-16T04:39:44.246Z,445.00
2023-04-16T04:40:44.219Z,448.00
2023-04-16T04:41:44.218Z,449.00
2023-04-16T04:42:44.208Z,450.00
2023-04-16T04:43:44.259Z,450.00
2023-04-16T04:44:44.213Z,449.00
2023-04-16T04:45:44.293Z,447.00
2023-04-16T04:46:44.197Z,445.00
2023-04-16T04:47:44.202Z,443.00
2023-04-16T04:48:44.201Z,441.00
2023-04-16T04:49:44.173Z,442.00
2023-04-16T04:50:44.162Z,442.00
2023-04-16T04:51:44.161Z,441.00
2023-04-16T04:52:44.149Z,440.00
2023-04-16T04:53:44.139Z,439.00
2023-04-16T04:54:44.171Z,442.00
2023-04-16T04:55:44.131Z,442.00
2023-04-16T04:56:44.130Z,442.00
2023-04-16T04:57:44.154Z,442.00
2023-04-16T04:58:44.145Z,441.00
2023-04-16T04:59:44.160Z,443.00
2023-04-16T05:00:44.268Z,446.00
2023-04-16T05:01:44.172Z,447.00
2023-04-16T05:02:44.304Z,444.00
2023-04-16T05:03:44.262Z,441.00
2023-04-16T05:04:44.196Z,438.00
2023-04-16T05:05:44.236Z,438.00
2023-04-16T05:06:44.217Z,434.00
2023-04-16T05:07:44.211Z,436.00
2023-04-16T05:08:44.257Z,438.00
2023-04-16T05:09:44.230Z,438.00
2023-04-16T05:10:44.253Z,441.00
2023-04-16T05:11:44.267Z,441.00
2023-04-16T05:12:44.794Z,441.00
2023-04-16T05:13:44.309Z,439.00
2023-04-16T05:14:44.271Z,436.00
2023-04-16T05:15:44.269Z,437.00
2023-04-16T05:16:44.334Z,437.00
2023-04-16T05:17:44.327Z,435.00
2023-04-16T05:18:44.306Z,436.00
2023-04-16T05:19:44.317Z,434.00
2023-04-16T05:20:44.300Z,434.00
2023-04-16T05:21:44.306Z,435.00
2023-04-16T05:22:44.333Z,436.00
2023-04-16T05:23:44.386Z,435.00
2023-04-16T05:24:44.344Z,434.00
2023-04-16T05:25:44.332Z,437.00
2023-04-16T05:26:44.361Z,437.00
2023-04-16T05:27:44.365Z,439.00
2023-04-16T05:28:44.365Z,440.00
2023-04-16T05:29:44.378Z,441.00
2023-04-16T05:30:44.421Z,441.00
2023-04-16T05:31:44.392Z,440.00
2023-04-16T05:32:44.447Z,444.00
2023-04-16T05:33:44.431Z,443.00
2023-04-16T05:34:44.402Z,442.00
2023-04-16T05:35:44.407Z,439.00
2023-04-16T05:36:44.431Z,438.00
2023-04-16T05:37:44.439Z,436.00
2023-04-16T05:38:44.450Z,436.00
2023-04-16T05:39:44.443Z,437.00
2023-04-16T05:40:44.440Z,436.00
2023-04-16T05:41:44.465Z,438.00
2023-04-16T05:42:44.461Z,440.00
2023-04-16T05:43:44.486Z,441.00
2023-04-16T05:44:44.488Z,441.00
2023-04-16T05:45:44.496Z,441.00
2023-04-16T05:46:44.504Z,440.00
2023-04-16T05:47:44.544Z,438.00
2023-04-16T05:48:44.521Z,438.00
2023-04-16T05:49:44.501Z,438.00
2023-04-16T05:50:44.517Z,438.00
2023-04-16T05:51:44.501Z,438.00
2023-04-16T05:52:44.519Z,439.00
2023-04-16T05:53:44.534Z,439.00
2023-04-16T05:54:44.534Z,441.00
2023-04-16T05:55:44.532Z,440.00
2023-04-16T05:56:44.539Z,439.00
2023-04-16T05:57:44.531Z,440.00
2023-04-16T05:58:44.540Z,440.00
2023-04-16T05:59:44.563Z,442.00
2023-04-16T06:00:44.545Z,441.00
2023-04-16T06:01:44.552Z,444.00
2023-04-16T06:02:44.788Z,444.00
2023-04-16T06:03:44.825Z,443.00
2023-04-16T06:04:44.567Z,440.00
2023-04-16T06:05:44.610Z,439.00
2023-04-16T06:06:44.590Z,438.00
2023-04-16T06:07:44.618Z,437.00
2023-04-16T06:08:44.605Z,438.00
2023-04-16T06:09:44.603Z,438.00
2023-04-16T06:10:44.628Z,437.00
2023-04-16T06:11:44.624Z,439.00
2023-04-16T06:12:44.637Z,440.00
2023-04-16T06:13:44.658Z,440.00
2023-04-16T06:14:44.668Z,439.00
2023-04-16T06:15:44.699Z,440.00
2023-04-16T06:16:44.694Z,441.00
2023-04-16T06:17:44.728Z,445.00
2023-04-16T06:18:44.712Z,443.00
2023-04-16T06:19:44.707Z,443.00
2023-04-16T06:20:44.713Z,442.00
2023-04-16T06:21:44.724Z,442.00
2023-04-16T06:22:44.740Z,442.00
2023-04-16T06:23:44.753Z,439.00
2023-04-16T06:24:44.766Z,439.00
2023-04-16T06:25:44.755Z,440.00
2023-04-16T06:26:44.782Z,440.00
2023-04-16T06:27:44.783Z,442.00
2023-04-16T06:28:44.771Z,438.00
2023-04-16T06:29:44.786Z,435.00
2023-04-16T06:30:44.908Z,433.00
2023-04-16T06:31:44.818Z,432.00
2023-04-16T06:32:44.904Z,433.00
2023-04-16T06:33:44.813Z,434.00
2023-04-16T06:34:44.850Z,434.00
2023-04-16T06:35:44.839Z,434.00
2023-04-16T06:36:44.850Z,432.00
2023-04-16T06:37:44.876Z,430.00
2023-04-16T06:38:44.870Z,433.00
2023-04-16T06:39:44.890Z,433.00
2023-04-16T06:40:44.883Z,434.00
2023-04-16T06:41:44.897Z,433.00
2023-04-16T06:42:45.675Z,433.00
2023-04-16T06:43:44.902Z,434.00
2023-04-16T06:44:44.900Z,432.00
2023-04-16T06:45:44.955Z,432.00
2023-04-16T06:46:44.953Z,435.00
2023-04-16T06:47:44.954Z,436.00
2023-04-16T06:48:44.928Z,435.00
2023-04-16T06:49:44.972Z,435.00
2023-04-16T06:50:44.954Z,435.00
2023-04-16T06:51:44.946Z,437.00
2023-04-16T06:52:44.960Z,438.00
2023-04-16T06:53:44.998Z,438.00
2023-04-16T06:54:44.978Z,439.00
2023-04-16T06:55:44.978Z,440.00
2023-04-16T06:56:44.966Z,438.00
2023-04-16T06:57:44.991Z,438.00
2023-04-16T06:58:44.973Z,436.00
2023-04-16T06:59:44.983Z,435.00
2023-04-16T07:00:45.022Z,433.00
2023-04-16T07:01:45.037Z,432.00
2023-04-16T07:02:45.112Z,431.00
2023-04-16T07:03:45.168Z,434.00
2023-04-16T07:04:44.996Z,434.00
2023-04-16T07:05:45.008Z,433.00
2023-04-16T07:06:45.018Z,431.00
2023-04-16T07:07:44.980Z,432.00
2023-04-16T07:08:45.019Z,430.00
2023-04-16T07:09:45.003Z,430.00
2023-04-16T07:10:44.983Z,430.00
2023-04-16T07:11:45.015Z,431.00
2023-04-16T07:12:44.976Z,429.00
2023-04-16T07:13:44.984Z,429.00
2023-04-16T07:14:44.986Z,428.00
2023-04-16T07:15:44.978Z,429.00
2023-04-16T07:16:45.045Z,429.00
2023-04-16T07:17:45.005Z,431.00
2023-04-16T07:18:44.989Z,431.00
2023-04-16T07:19:44.980Z,430.00
2023-04-16T07:20:44.971Z,429.00
2023-04-16T07:21:44.980Z,430.00
2023-04-16T07:22:44.984Z,430.00
2023-04-16T07:23:44.984Z,428.00
2023-04-16T07:24:44.963Z,430.00
2023-04-16T07:25:45.015Z,429.00
2023-04-16T07:26:44.945Z,428.00
2023-04-16T07:27:44.948Z,430.00
2023-04-16T07:28:44.953Z,430.00
2023-04-16T07:29:44.941Z,433.00
2023-04-16T07:30:44.942Z,432.00
2023-04-16T07:31:44.967Z,434.00
2023-04-16T07:32:44.989Z,434.00
2023-04-16T07:33:44.927Z,436.00
2023-04-16T07:34:44.932Z,436.00
2023-04-16T07:35:44.917Z,435.00
2023-04-16T07:36:44.920Z,432.00
2023-04-16T07:37:44.931Z,430.00
2023-04-16T07:38:44.956Z,429.00
2023-04-16T07:39:44.979Z,430.00
2023-04-16T07:40:44.990Z,431.00
2023-04-16T07:41:45.007Z,431.00
2023-04-16T07:42:45.042Z,432.00
2023-04-16T07:43:45.061Z,432.00
2023-04-16T07:44:45.077Z,430.00
2023-04-16T07:45:45.108Z,428.00
2023-04-16T07:46:47.319Z,427.00
2023-04-16T07:47:45.332Z,426.00
2023-04-16T07:48:45.315Z,425.00
2023-04-16T07:49:45.357Z,423.00
2023-04-16T07:50:45.372Z,423.00
2023-04-16T07:51:45.403Z,426.00
2023-04-16T07:52:45.446Z,427.00
2023-04-16T07:53:45.445Z,427.00
2023-04-16T07:54:45.489Z,430.00
2023-04-16T07:55:45.518Z,429.00
2023-04-16T07:56:45.535Z,427.00
2023-04-16T07:57:45.569Z,427.00
2023-04-16T07:58:45.612Z,425.00
2023-04-16T07:59:45.637Z,426.00
2023-04-16T08:00:45.689Z,427.00
2023-04-16T08:01:45.686Z,427.00
2023-04-16T08:02:45.804Z,427.00
2023-04-16T08:03:45.907Z,426.00
2023-04-16T08:04:45.974Z,423.00
2023-04-16T08:05:45.834Z,423.00
2023-04-16T08:06:45.874Z,425.00
2023-04-16T08:07:45.932Z,426.00
2023-04-16T08:08:45.979Z,428.00
2023-04-16T08:09:46.025Z,428.00
2023-04-16T08:10:46.098Z,429.00
2023-04-16T08:11:46.132Z,427.00
2023-04-16T08:12:46.181Z,427.00
2023-04-16T08:13:46.234Z,426.00
2023-04-16T08:14:46.303Z,425.00
2023-04-16T08:15:46.438Z,425.00
2023-04-16T08:16:46.454Z,428.00
2023-04-16T08:17:46.573Z,425.00
2023-04-16T08:18:46.567Z,427.00
2023-04-16T08:19:46.616Z,426.00
2023-04-16T08:20:46.684Z,426.00
2023-04-16T08:21:46.733Z,427.00
2023-04-16T08:22:46.809Z,429.00
2023-04-16T08:23:46.838Z,428.00
2023-04-16T08:24:46.906Z,427.00
2023-04-16T08:25:46.959Z,427.00
2023-04-16T08:26:47.033Z,428.00
2023-04-16T08:27:47.089Z,429.00
2023-04-16T08:28:47.131Z,428.00
2023-04-16T08:29:47.206Z,426.00
2023-04-16T08:30:47.255Z,430.00
2023-04-16T08:31:47.363Z,430.00
2023-04-16T08:32:49.369Z,427.00
2023-04-16T08:33:47.382Z,428.00
2023-04-16T08:34:47.377Z,429.00
2023-04-16T08:35:47.368Z,428.00
2023-04-16T08:36:47.336Z,427.00
2023-04-16T08:37:47.349Z,427.00
2023-04-16T08:38:47.337Z,425.00
2023-04-16T08:39:47.314Z,425.00
2023-04-16T08:40:47.307Z,423.00
2023-04-16T08:41:47.322Z,423.00
2023-04-16T08:42:47.309Z,423.00
2023-04-16T08:43:47.312Z,424.00
2023-04-16T08:44:48.554Z,421.00
2023-04-16T08:45:47.295Z,422.00
2023-04-16T08:46:47.289Z,422.00
2023-04-16T08:47:47.338Z,424.00
2023-04-16T08:48:47.303Z,424.00
2023-04-16T08:49:47.257Z,425.00
2023-04-16T08:50:47.247Z,423.00
2023-04-16T08:51:47.274Z,423.00
2023-04-16T08:52:47.248Z,423.00
2023-04-16T08:53:47.243Z,421.00
2023-04-16T08:54:47.228Z,423.00
2023-04-16T08:55:48.236Z,425.00
2023-04-16T08:56:47.223Z,423.00
2023-04-16T08:57:47.237Z,424.00
2023-04-16T08:58:47.198Z,425.00
2023-04-16T08:59:47.214Z,425.00
2023-04-16T09:00:47.185Z,425.00
2023-04-16T09:01:47.220Z,425.00
2023-04-16T09:02:47.426Z,424.00
2023-04-16T09:03:47.337Z,422.00
2023-04-16T09:04:47.272Z,421.00
2023-04-16T09:05:47.264Z,419.00
2023-04-16T09:06:47.321Z,417.00
2023-04-16T09:07:47.370Z,417.00
2023-04-16T09:08:47.451Z,416.00
2023-04-16T09:09:47.488Z,417.00
2023-04-16T09:10:47.521Z,416.00
2023-04-16T09:11:47.571Z,415.00
2023-04-16T09:12:47.623Z,413.00
2023-04-16T09:13:47.689Z,413.00
2023-04-16T09:14:47.738Z,414.00
2023-04-16T09:15:47.787Z,415.00
2023-04-16T09:16:47.915Z,414.00
2023-04-16T09:17:47.919Z,417.00
2023-04-16T09:18:47.963Z,417.00
2023-04-16T09:19:48.014Z,419.00
2023-04-16T09:20:48.062Z,419.00
2023-04-16T09:21:48.115Z,419.00
2023-04-16T09:22:48.190Z,420.00
2023-04-16T09:23:48.226Z,420.00
2023-04-16T09:24:48.321Z,418.00
2023-04-16T09:25:48.337Z,419.00
2023-04-16T09:26:48.421Z,421.00
2023-04-16T09:27:48.473Z,419.00
2023-04-16T09:28:48.552Z,422.00
2023-04-16T09:29:48.566Z,422.00
2023-04-16T09:30:48.635Z,425.00
2023-04-16T09:31:48.842Z,423.00
2023-04-16T09:32:48.767Z,423.00
2023-04-16T09:33:48.804Z,422.00
2023-04-16T09:34:48.858Z,422.00
2023-04-16T09:35:48.923Z,420.00
2023-04-16T09:36:48.970Z,420.00
2023-04-16T09:37:49.017Z,420.00
2023-04-16T09:38:49.073Z,418.00
2023-04-16T09:39:49.115Z,419.00
2023-04-16T09:40:49.177Z,418.00
2023-04-16T09:41:49.242Z,418.00
2023-04-16T09:42:49.293Z,420.00
2023-04-16T09:43:49.352Z,420.00
2023-04-16T09:44:49.415Z,420.00
2023-04-16T09:45:49.484Z,421.00
2023-04-16T09:46:49.519Z,423.00
2023-04-16T09:47:49.589Z,423.00
2023-04-16T09:48:49.623Z,418.00
2023-04-16T09:49:49.651Z,418.00
2023-04-16T09:50:49.702Z,419.00
2023-04-16T09:51:49.767Z,420.00
2023-04-16T09:52:49.840Z,415.00
2023-04-16T09:53:49.856Z,413.00
2023-04-16T09:54:49.925Z,414.00
2023-04-16T09:55:49.963Z,415.00
2023-04-16T09:56:50.020Z,416.00
2023-04-16T09:57:50.061Z,415.00
2023-04-16T09:58:50.153Z,414.00
2023-04-16T09:59:50.165Z,415.00
2023-04-16T10:00:50.286Z,412.00
2023-04-16T10:01:50.437Z,412.00
2023-04-16T10:02:50.831Z,414.00
2023-04-16T10:03:50.485Z,414.00
2023-04-16T10:04:50.558Z,417.00
2023-04-16T10:05:50.443Z,420.00
2023-04-16T10:06:50.504Z,419.00
2023-04-16T10:07:50.566Z,423.00
2023-04-16T10:08:50.777Z,424.00
2023-04-16T10:09:50.634Z,424.00
2023-04-16T10:10:50.678Z,425.00
2023-04-16T10:11:50.728Z,422.00
2023-04-16T10:12:50.765Z,420.00
2023-04-16T10:13:50.827Z,419.00
2023-04-16T10:14:50.861Z,418.00
2023-04-16T10:15:50.887Z,417.00
2023-04-16T10:16:51.055Z,417.00
2023-04-16T10:17:51.148Z,418.00
2023-04-16T10:18:51.038Z,417.00
2023-04-16T10:19:51.056Z,419.00
2023-04-16T10:20:51.134Z,421.00
2023-04-16T10:21:51.152Z,422.00
2023-04-16T10:22:51.191Z,420.00
2023-04-16T10:23:51.249Z,419.00
2023-04-16T10:24:51.275Z,419.00
2023-04-16T10:25:51.298Z,417.00
2023-04-16T10:26:51.360Z,419.00
2023-04-16T10:27:51.388Z,420.00
2023-04-16T10:28:51.417Z,423.00
2023-04-16T10:29:51.467Z,422.00
2023-04-16T10:30:51.547Z,421.00
2023-04-16T10:31:51.536Z,423.00
2023-04-16T10:32:51.602Z,423.00
2023-04-16T10:33:51.613Z,422.00
2023-04-16T10:34:51.641Z,423.00
2023-04-16T10:36:01.305Z,423.00
2023-04-16T10:36:52.657Z,424.00
2023-04-16T10:37:51.666Z,425.00
2023-04-16T10:38:51.645Z,426.00
2023-04-16T10:39:51.648Z,426.00
2023-04-16T10:40:51.647Z,423.00
2023-04-16T10:41:51.640Z,423.00
2023-04-16T10:42:51.698Z,424.00
2023-04-16T10:43:51.657Z,424.00
2023-04-16T10:44:51.621Z,422.00
2023-04-16T10:45:51.642Z,423.00
2023-04-16T10:46:51.586Z,422.00
2023-04-16T10:47:51.589Z,423.00
2023-04-16T10:48:51.573Z,424.00
2023-04-16T10:49:51.561Z,425.00
2023-04-16T10:50:52.240Z,425.00
2023-04-16T10:51:51.609Z,422.00
2023-04-16T10:52:51.623Z,423.00
2023-04-16T10:53:51.655Z,426.00
2023-04-16T10:54:51.689Z,425.00
2023-04-16T10:55:51.707Z,428.00
2023-04-16T10:56:51.749Z,426.00
2023-04-16T10:57:51.770Z,427.00
2023-04-16T10:58:51.791Z,426.00
2023-04-16T10:59:51.836Z,425.00
2023-04-16T11:00:51.885Z,425.00
2023-04-16T11:01:51.950Z,425.00
2023-04-16T11:02:51.997Z,424.00
2023-04-16T11:03:52.081Z,426.00
2023-04-16T11:04:51.997Z,425.00
2023-04-16T11:05:51.996Z,426.00
2023-04-16T11:06:52.016Z,425.00
2023-04-16T11:07:52.039Z,427.00
2023-04-16T11:08:54.941Z,426.00
2023-04-16T11:09:52.066Z,426.00
2023-04-16T11:10:52.063Z,425.00
2023-04-16T11:11:52.055Z,426.00
2023-04-16T11:12:52.034Z,422.00
2023-04-16T11:13:52.040Z,421.00
2023-04-16T11:14:52.013Z,420.00
2023-04-16T11:15:52.037Z,418.00
2023-04-16T11:16:52.009Z,418.00
2023-04-16T11:17:52.154Z,416.00
2023-04-16T11:18:52.047Z,415.00
2023-04-16T11:19:53.668Z,415.00
2023-04-16T11:20:51.995Z,418.00
2023-04-16T11:21:51.968Z,416.00
2023-04-16T11:22:52.014Z,418.00
2023-04-16T11:23:51.977Z,419.00
2023-04-16T11:24:51.950Z,421.00
2023-04-16T11:25:51.945Z,423.00
2023-04-16T11:26:51.961Z,420.00
2023-04-16T11:27:51.997Z,421.00
2023-04-16T11:28:51.935Z,421.00
2023-04-16T11:29:51.936Z,421.00
2023-04-16T11:30:51.915Z,423.00
2023-04-16T11:31:52.009Z,425.00
2023-04-16T11:32:51.926Z,425.00
2023-04-16T11:33:51.911Z,422.00
2023-04-16T11:34:51.887Z,420.00
2023-04-16T11:35:51.901Z,418.00
2023-04-16T11:36:51.892Z,420.00
2023-04-16T11:37:51.888Z,420.00
2023-04-16T11:38:51.878Z,421.00
2023-04-16T11:39:51.873Z,420.00
2023-04-16T11:40:51.882Z,421.00
2023-04-16T11:41:51.841Z,422.00
2023-04-16T11:42:51.861Z,420.00
2023-04-16T11:43:51.840Z,421.00
2023-04-16T11:44:51.876Z,421.00
2023-04-16T11:45:51.899Z,419.00
2023-04-16T11:46:51.964Z,420.00
2023-04-16T11:47:52.249Z,420.00
2023-04-16T11:48:51.970Z,418.00
2023-04-16T11:49:51.982Z,416.00
2023-04-16T11:50:52.024Z,413.00
2023-04-16T11:51:52.008Z,415.00
2023-04-16T11:52:52.038Z,416.00
2023-04-16T11:53:52.049Z,418.00
2023-04-16T11:54:52.076Z,418.00
2023-04-16T11:55:52.096Z,416.00
2023-04-16T11:56:52.117Z,418.00
2023-04-16T11:57:52.416Z,418.00
2023-04-16T11:58:52.151Z,420.00
2023-04-16T12:00:01.685Z,420.00
2023-04-16T12:00:53.170Z,422.00
2023-04-16T12:01:52.237Z,422.00
2023-04-16T12:02:52.432Z,421.00
2023-04-16T12:03:52.307Z,424.00
2023-04-16T12:04:52.232Z,422.00
2023-04-16T12:05:52.137Z,421.00
2023-04-16T12:06:52.146Z,420.00
2023-04-16T12:07:52.136Z,418.00
2023-04-16T12:08:52.115Z,420.00
2023-04-16T12:09:52.133Z,420.00
2023-04-16T12:10:52.121Z,419.00
2023-04-16T12:11:52.102Z,419.00
2023-04-16T12:12:52.105Z,420.00
2023-04-16T12:13:52.084Z,419.00
2023-04-16T12:14:52.099Z,420.00
2023-04-16T12:15:52.077Z,420.00
2023-04-16T12:16:52.124Z,420.00
2023-04-16T12:17:52.118Z,419.00
2023-04-16T12:18:52.124Z,421.00
2023-04-16T12:19:52.131Z,421.00
2023-04-16T12:20:52.157Z,423.00
2023-04-16T12:21:52.199Z,423.00
2023-04-16T12:22:52.220Z,423.00
2023-04-16T12:23:52.231Z,422.00
2023-04-16T12:24:52.273Z,423.00
2023-04-16T12:25:52.280Z,421.00
2023-04-16T12:26:52.326Z,421.00
2023-04-16T12:27:53.727Z,419.00
2023-04-16T12:28:52.355Z,419.00